Time;durP1;ratioP1;P1;durP2;ratioP2;P2;SDS_P1;SDS_P2;PMS_P1;PMS_P2;Temp;Humidity;BMP_temperature;BMP_pressure;BME280_temperature;BME280_humidity;BME280_pressure;Samples;Min_cycle;Max_cycle;Signal;HPM_P1;HPM_P2
2023/07/06 00:00:14;;;;;;;14.70;6.93;;;12.90;99.90;;;;;;4822750;29;20145;-86
2023/07/06 00:02:42;;;;;;;15.40;7.38;;;12.90;99.90;;;;;;4824470;29;20054;-86
2023/07/06 00:05:23;;;;;;;14.13;6.72;;;12.80;99.90;;;;;;4824003;29;20050;-86
2023/07/06 00:07:49;;;;;;;13.95;6.75;;;12.80;99.90;;;;;;4823188;29;20054;-86
2023/07/06 00:10:14;;;;;;;14.20;6.85;;;12.80;99.90;;;;;;4823388;29;20048;-86
2023/07/06 00:12:40;;;;;;;13.05;6.95;;;12.80;99.90;;;;;;4822481;29;20448;-86
2023/07/06 00:15:09;;;;;;;13.60;6.85;;;12.70;99.90;;;;;;4823692;29;20050;-86
2023/07/06 00:17:34;;;;;;;13.38;6.85;;;12.60;99.90;;;;;;4824071;29;20471;-86
2023/07/06 00:20:12;;;;;;;14.77;7.15;;;12.60;99.90;;;;;;4824539;29;20103;-85
2023/07/06 00:22:38;;;;;;;16.02;7.15;;;12.60;99.90;;;;;;4823560;29;20153;-86
2023/07/06 00:25:04;;;;;;;15.85;7.25;;;12.60;99.90;;;;;;4822391;29;20058;-86
2023/07/06 00:27:31;;;;;;;15.48;7.43;;;12.50;99.90;;;;;;4823193;29;20042;-86
2023/07/06 00:30:15;;;;;;;14.25;6.90;;;12.50;99.90;;;;;;4824538;29;20506;-86
2023/07/06 00:32:47;;;;;;;16.50;6.90;;;12.50;99.90;;;;;;4822425;29;20058;-86
2023/07/06 00:35:15;;;;;;;15.70;7.22;;;12.40;99.90;;;;;;4824602;29;20042;-86
2023/07/06 00:37:41;;;;;;;13.70;7.22;;;12.40;99.90;;;;;;4823268;29;20140;-86
2023/07/06 00:40:21;;;;;;;13.23;7.15;;;12.40;99.90;;;;;;4823678;29;20093;-86
2023/07/06 00:42:49;;;;;;;14.30;7.30;;;12.30;99.90;;;;;;4824343;29;20491;-86
2023/07/06 00:45:16;;;;;;;14.25;6.75;;;12.20;99.90;;;;;;4824335;29;20129;-86
2023/07/06 00:47:48;;;;;;;13.25;7.22;;;12.20;99.90;;;;;;4823824;29;20125;-86
2023/07/06 00:50:20;;;;;;;16.23;7.65;;;12.10;99.90;;;;;;4825027;29;20046;-85
2023/07/06 00:52:51;;;;;;;15.40;7.07;;;12.10;99.90;;;;;;4828738;29;20095;-85
2023/07/06 00:55:21;;;;;;;17.92;7.43;;;12.10;99.90;;;;;;4823896;29;20092;-85
2023/07/06 00:57:51;;;;;;;13.57;7.28;;;12.00;99.90;;;;;;4824755;29;20121;-86
2023/07/06 01:00:20;;;;;;;15.00;7.30;;;12.00;99.90;;;;;;4822606;29;20073;-86
2023/07/06 01:02:51;;;;;;;14.30;7.28;;;12.00;99.90;;;;;;4824997;29;20054;-85
2023/07/06 01:05:18;;;;;;;15.45;7.38;;;12.00;99.90;;;;;;4844089;29;20046;-86
2023/07/06 01:07:45;;;;;;;12.70;7.28;;;11.90;99.90;;;;;;4839475;29;20049;-86
2023/07/06 01:10:11;;;;;;;15.13;6.95;;;11.80;99.90;;;;;;4826058;29;20050;-85
2023/07/06 01:12:37;;;;;;;14.43;7.30;;;11.80;99.90;;;;;;4824859;29;20054;-86
2023/07/06 01:15:06;;;;;;;13.88;6.50;;;11.80;99.90;;;;;;4823564;29;20568;-85
2023/07/06 01:17:55;;;;;;;12.82;6.90;;;11.80;99.90;;;;;;4823015;29;20089;-86
2023/07/06 01:20:44;;;;;;;13.32;6.40;;;11.40;99.90;;;;;;4824454;29;20051;-86
2023/07/06 01:23:37;;;;;;;15.38;6.70;;;11.80;99.90;;;;;;4823641;29;20046;-86
2023/07/06 01:26:26;;;;;;;12.90;6.57;;;11.80;99.90;;;;;;4831763;29;20056;-85
2023/07/06 01:28:58;;;;;;;14.63;7.00;;;11.80;99.90;;;;;;4823836;29;20058;-86
2023/07/06 01:31:55;;;;;;;13.43;6.53;;;11.80;99.90;;;;;;4824344;29;20130;-86
2023/07/06 01:34:41;;;;;;;14.23;7.55;;;11.80;99.90;;;;;;4824341;29;20061;-86
2023/07/06 01:37:22;;;;;;;17.67;7.18;;;11.80;99.90;;;;;;4821990;29;20777;-86
2023/07/06 01:39:48;;;;;;;15.00;7.20;;;11.70;99.90;;;;;;4822619;29;20102;-86
2023/07/06 01:42:27;;;;;;;15.55;7.18;;;11.70;99.90;;;;;;4823277;29;20831;-86
2023/07/06 01:45:05;;;;;;;16.92;6.88;;;11.70;99.90;;;;;;4823949;29;20079;-85
2023/07/06 01:47:36;;;;;;;15.32;6.80;;;11.60;99.90;;;;;;4822721;29;20050;-86
2023/07/06 01:50:06;;;;;;;15.00;7.18;;;11.60;99.90;;;;;;4821556;29;20141;-86
2023/07/06 01:52:44;;;;;;;13.85;7.28;;;11.60;99.90;;;;;;4822954;29;20141;-86
2023/07/06 01:55:25;;;;;;;15.05;7.03;;;11.70;99.90;;;;;;4824298;29;20053;-86
2023/07/06 01:58:17;;;;;;;15.45;6.70;;;11.60;99.90;;;;;;4822109;29;20158;-86
2023/07/06 02:00:48;;;;;;;13.13;6.68;;;11.60;99.90;;;;;;4825139;29;20058;-86
2023/07/06 02:03:17;;;;;;;14.25;6.40;;;11.60;99.90;;;;;;4823511;29;20187;-86
2023/07/06 02:05:43;;;;;;;16.08;6.85;;;11.60;99.90;;;;;;4823375;29;20054;-86
2023/07/06 02:08:11;;;;;;;14.68;7.03;;;11.70;99.90;;;;;;4822183;29;20418;-85
2023/07/06 02:10:37;;;;;;;12.52;6.57;;;11.70;99.90;;;;;;4821890;29;20062;-85
2023/07/06 02:13:03;;;;;;;12.93;6.13;;;11.70;99.90;;;;;;4823325;29;20133;-85
2023/07/06 02:15:30;;;;;;;13.02;6.43;;;11.70;99.90;;;;;;4823657;29;20074;-86
2023/07/06 02:17:56;;;;;;;13.10;7.00;;;11.70;99.90;;;;;;4822782;29;20088;-86
2023/07/06 02:20:23;;;;;;;11.98;6.50;;;11.70;99.90;;;;;;4822048;29;20116;-86
2023/07/06 02:22:49;;;;;;;14.80;7.20;;;11.60;99.90;;;;;;4830612;29;20046;-86
2023/07/06 02:25:15;;;;;;;15.77;6.93;;;11.60;99.90;;;;;;4842685;29;20042;-86
2023/07/06 02:27:41;;;;;;;15.45;6.78;;;11.60;99.90;;;;;;4845357;29;20535;-86
2023/07/06 02:30:07;;;;;;;15.73;7.72;;;11.60;99.90;;;;;;4845232;29;20058;-86
2023/07/06 02:32:33;;;;;;;15.73;7.03;;;11.60;99.90;;;;;;4844262;29;20517;-86
2023/07/06 02:35:11;;;;;;;15.93;7.35;;;11.60;99.90;;;;;;4845527;29;20077;-86
2023/07/06 02:37:53;;;;;;;14.10;7.43;;;11.60;99.90;;;;;;4853676;29;20511;-86
2023/07/06 02:40:18;;;;;;;13.35;6.90;;;11.80;99.90;;;;;;4842664;29;20058;-86
2023/07/06 02:42:48;;;;;;;13.88;7.25;;;11.60;99.90;;;;;;4820272;29;20042;-86
2023/07/06 02:45:13;;;;;;;15.52;7.20;;;11.60;99.90;;;;;;4825646;29;20419;-86
2023/07/06 02:47:48;;;;;;;14.23;7.28;;;11.60;99.90;;;;;;4825352;29;20488;-86
2023/07/06 02:50:14;;;;;;;15.10;6.70;;;11.60;99.90;;;;;;4825313;29;20452;-86
2023/07/06 02:52:51;;;;;;;15.85;7.47;;;11.60;99.90;;;;;;4825486;29;20138;-86
2023/07/06 02:55:17;;;;;;;14.88;7.57;;;11.60;99.90;;;;;;4826410;29;20057;-86
2023/07/06 02:57:45;;;;;;;15.52;7.53;;;11.60;99.90;;;;;;4826429;29;20050;-86
2023/07/06 03:00:14;;;;;;;17.55;7.88;;;11.60;99.90;;;;;;4823893;29;20058;-86
2023/07/06 03:02:40;;;;;;;16.33;8.02;;;11.70;99.90;;;;;;4825500;29;20085;-86
2023/07/06 03:05:06;;;;;;;16.83;8.20;;;11.70;99.90;;;;;;4826024;29;20066;-86
2023/07/06 03:07:34;;;;;;;15.50;7.97;;;11.70;99.90;;;;;;4826084;29;20507;-86
2023/07/06 03:10:01;;;;;;;15.15;8.00;;;11.70;99.90;;;;;;4826380;29;20055;-86
2023/07/06 03:12:30;;;;;;;15.77;8.27;;;11.70;99.90;;;;;;4833797;29;20411;-86
2023/07/06 03:14:57;;;;;;;16.52;8.20;;;11.70;99.90;;;;;;4826668;29;20038;-86
2023/07/06 03:17:22;;;;;;;16.98;8.10;;;11.70;99.90;;;;;;4825885;29;20393;-86
2023/07/06 03:19:51;;;;;;;18.10;8.57;;;11.70;99.90;;;;;;4825637;29;20057;-86
2023/07/06 03:22:17;;;;;;;16.02;8.07;;;11.80;99.90;;;;;;4825046;29;20491;-86
2023/07/06 03:24:44;;;;;;;15.93;8.05;;;11.80;99.90;;;;;;4807923;29;20049;-86
2023/07/06 03:27:10;;;;;;;16.38;7.90;;;11.80;99.90;;;;;;4807697;29;20051;-86
2023/07/06 03:29:37;;;;;;;15.10;8.02;;;11.70;99.90;;;;;;4824169;29;20407;-86
2023/07/06 03:32:06;;;;;;;15.93;8.05;;;11.70;99.90;;;;;;4825406;29;20058;-86
2023/07/06 03:34:32;;;;;;;15.93;8.13;;;11.70;99.90;;;;;;4824318;29;20046;-86
2023/07/06 03:36:58;;;;;;;16.75;8.32;;;11.70;99.90;;;;;;4824274;29;20065;-86
2023/07/06 03:39:25;;;;;;;20.15;8.68;;;11.70;99.90;;;;;;4825946;29;20510;-86
2023/07/06 03:41:51;;;;;;;16.50;8.75;;;11.70;99.90;;;;;;4824105;29;20050;-86
2023/07/06 03:44:21;;;;;;;16.85;8.50;;;11.70;99.90;;;;;;4824296;29;20448;-86
2023/07/06 03:46:47;;;;;;;17.95;8.63;;;11.70;99.90;;;;;;4826759;29;20058;-86
2023/07/06 03:49:13;;;;;;;16.77;8.45;;;11.70;99.90;;;;;;4834039;29;20046;-86
2023/07/06 03:51:45;;;;;;;16.73;8.60;;;11.70;99.90;;;;;;4824200;29;20055;-86
2023/07/06 03:54:12;;;;;;;18.50;9.13;;;11.70;99.90;;;;;;4825370;29;20046;-86
2023/07/06 03:56:45;;;;;;;18.10;8.82;;;11.70;99.90;;;;;;4824127;29;20411;-86
2023/07/06 03:59:11;;;;;;;17.52;8.70;;;11.60;99.90;;;;;;4823780;29;20411;-86
2023/07/06 04:01:36;;;;;;;18.77;8.27;;;11.60;99.90;;;;;;4825031;29;20058;-86
2023/07/06 04:04:05;;;;;;;18.45;8.35;;;11.60;99.90;;;;;;4821917;29;20050;-86
2023/07/06 04:06:31;;;;;;;18.42;8.95;;;11.70;99.90;;;;;;4837197;29;20062;-86
2023/07/06 04:08:57;;;;;;;17.33;8.30;;;11.70;99.90;;;;;;4844988;29;20103;-85
2023/07/06 04:11:23;;;;;;;20.83;10.25;;;11.70;99.90;;;;;;4833547;29;20053;-86
2023/07/06 04:13:49;;;;;;;17.25;9.35;;;11.80;99.90;;;;;;4826925;29;20053;-86
2023/07/06 04:16:16;;;;;;;20.40;9.93;;;11.80;99.90;;;;;;4825178;29;20077;-86
2023/07/06 04:18:44;;;;;;;19.75;9.93;;;11.80;99.90;;;;;;4822675;29;20133;-86
2023/07/06 04:21:19;;;;;;;18.42;9.57;;;11.90;99.90;;;;;;4824127;29;20053;-86
2023/07/06 04:23:49;;;;;;;19.52;10.05;;;11.90;99.90;;;;;;4834415;29;20054;-87
2023/07/06 04:26:16;;;;;;;18.55;9.95;;;12.00;99.90;;;;;;4823272;29;20130;-86
2023/07/06 04:28:42;;;;;;;23.13;11.05;;;12.00;99.90;;;;;;4825295;29;20057;-86
2023/07/06 04:31:10;;;;;;;22.13;11.20;;;12.00;99.90;;;;;;4823011;29;20051;-86
2023/07/06 04:33:36;;;;;;;18.48;10.20;;;12.10;99.90;;;;;;4825194;29;20099;-86
2023/07/06 04:36:03;;;;;;;23.75;11.90;;;12.10;99.90;;;;;;4823109;29;20050;-86
2023/07/06 04:38:46;;;;;;;21.40;12.32;;;12.20;99.90;;;;;;4823653;29;20061;-86
2023/07/06 04:41:13;;;;;;;21.67;11.50;;;12.30;99.90;;;;;;4824926;29;20053;-86
2023/07/06 04:43:39;;;;;;;20.55;11.63;;;12.30;99.90;;;;;;4823705;29;20518;-86
2023/07/06 04:46:05;;;;;;;19.88;11.18;;;12.40;99.90;;;;;;4823396;29;20053;-86
2023/07/06 04:48:33;;;;;;;22.65;12.68;;;12.50;99.90;;;;;;4823777;29;20042;-86
2023/07/06 04:50:59;;;;;;;21.00;11.80;;;12.50;99.90;;;;;;4824398;29;20050;-86
2023/07/06 04:53:25;;;;;;;22.17;11.32;;;12.50;99.90;;;;;;4824072;29;20043;-86
2023/07/06 04:55:51;;;;;;;20.58;11.65;;;12.60;99.90;;;;;;4824858;29;20050;-86
2023/07/06 04:58:17;;;;;;;26.25;12.18;;;12.60;99.90;;;;;;4826308;29;20101;-86
2023/07/06 05:00:45;;;;;;;22.13;11.80;;;12.60;99.90;;;;;;4828768;29;20066;-86
2023/07/06 05:03:12;;;;;;;21.70;11.68;;;12.60;99.90;;;;;;4825591;29;20486;-86
2023/07/06 05:05:45;;;;;;;22.88;12.48;;;12.60;99.90;;;;;;4823484;29;20123;-86
2023/07/06 05:08:15;;;;;;;23.08;11.95;;;12.50;99.90;;;;;;4823581;29;20099;-86
2023/07/06 05:10:43;;;;;;;24.95;11.82;;;12.50;99.90;;;;;;4824747;29;20045;-86
2023/07/06 05:13:09;;;;;;;21.75;11.40;;;12.60;99.90;;;;;;4823568;29;20125;-86
2023/07/06 05:15:38;;;;;;;26.55;11.88;;;12.60;99.90;;;;;;4824646;29;20249;-86
2023/07/06 05:18:12;;;;;;;21.27;11.50;;;12.70;99.90;;;;;;4824041;29;20371;-86
2023/07/06 05:20:40;;;;;;;22.83;12.10;;;12.80;99.90;;;;;;4805385;29;20058;-86
2023/07/06 05:23:08;;;;;;;24.52;12.55;;;12.90;99.90;;;;;;4804080;29;20051;-86
2023/07/06 05:25:50;;;;;;;21.05;11.52;;;13.00;99.90;;;;;;4806015;29;20058;-86
2023/07/06 05:28:20;;;;;;;21.77;11.15;;;13.10;99.90;;;;;;4805047;29;20083;-86
2023/07/06 05:30:46;;;;;;;18.63;11.10;;;13.30;99.90;;;;;;4824246;29;20042;-86
2023/07/06 05:33:12;;;;;;;23.52;11.45;;;13.40;99.90;;;;;;4823923;29;20085;-87
2023/07/06 05:35:39;;;;;;;20.17;10.95;;;13.50;99.90;;;;;;4833378;29;20105;-87
2023/07/06 05:38:10;;;;;;;19.25;10.40;;;13.60;99.90;;;;;;4823927;29;20483;-86
2023/07/06 05:40:38;;;;;;;23.95;10.85;;;13.70;99.90;;;;;;4823937;29;20125;-86
2023/07/06 05:43:10;;;;;;;18.25;10.77;;;13.80;99.90;;;;;;4822834;29;20077;-86
2023/07/06 05:45:36;;;;;;;26.13;10.38;;;13.90;99.90;;;;;;4822649;29;20535;-87
2023/07/06 05:48:02;;;;;;;18.67;10.07;;;14.00;99.90;;;;;;4822204;29;20066;-86
2023/07/06 05:50:28;;;;;;;20.50;10.10;;;14.10;99.90;;;;;;4821984;29;20572;-86
2023/07/06 05:52:54;;;;;;;21.75;10.13;;;14.10;99.90;;;;;;4823317;29;20050;-86
2023/07/06 05:55:20;;;;;;;20.33;9.88;;;14.30;99.90;;;;;;4822604;29;20038;-87
2023/07/06 05:57:55;;;;;;;23.83;10.45;;;14.30;99.90;;;;;;4823495;29;20403;-87
2023/07/06 06:00:21;;;;;;;20.88;10.10;;;14.40;99.90;;;;;;4825159;29;20530;-87
2023/07/06 06:02:47;;;;;;;19.73;10.38;;;14.50;99.90;;;;;;4824655;29;20084;-87
2023/07/06 06:05:15;;;;;;;20.08;10.30;;;14.50;99.90;;;;;;4825892;29;20081;-86
2023/07/06 06:07:45;;;;;;;20.35;10.15;;;14.50;99.90;;;;;;4826673;29;20054;-87
2023/07/06 06:10:12;;;;;;;20.90;9.82;;;14.60;99.90;;;;;;4824750;29;20058;-87
2023/07/06 06:12:38;;;;;;;18.95;9.60;;;14.60;99.90;;;;;;4826680;29;20054;-87
2023/07/06 06:15:07;;;;;;;19.80;9.73;;;14.70;99.90;;;;;;4826057;29;20578;-87
2023/07/06 06:17:34;;;;;;;17.13;9.30;;;14.90;99.90;;;;;;4825222;29;20054;-86
2023/07/06 06:20:00;;;;;;;17.35;9.52;;;15.00;99.90;;;;;;4826608;29;20050;-87
2023/07/06 06:22:26;;;;;;;20.10;9.30;;;15.10;99.90;;;;;;4825198;29;20061;-88
2023/07/06 06:25:19;;;;;;;19.40;9.57;;;15.30;99.90;;;;;;4824370;29;20137;-86
2023/07/06 06:27:46;;;;;;;19.52;9.68;;;15.30;99.90;;;;;;4826345;29;20103;-86
2023/07/06 06:30:15;;;;;;;18.77;8.80;;;15.60;99.90;;;;;;4825287;29;20050;-87
2023/07/06 06:32:42;;;;;;;18.15;9.38;;;15.70;99.90;;;;;;4824626;29;20050;-85
2023/07/06 06:35:28;;;;;;;21.38;9.70;;;15.70;99.90;;;;;;4826318;29;20464;-87
2023/07/06 06:37:55;;;;;;;20.40;9.20;;;15.70;99.90;;;;;;4822997;29;20499;-83
2023/07/06 06:40:36;;;;;;;19.20;8.93;;;15.80;99.90;;;;;;4826467;29;20157;-83
2023/07/06 06:43:03;;;;;;;18.73;9.77;;;15.60;99.90;;;;;;4825685;29;20042;-83
2023/07/06 06:45:32;;;;;;;20.00;9.48;;;15.80;99.90;;;;;;4818406;29;20058;-83
2023/07/06 06:47:59;;;;;;;19.08;9.45;;;15.90;99.90;;;;;;4812952;29;20046;-83
2023/07/06 06:50:25;;;;;;;18.17;9.90;;;15.90;99.90;;;;;;4816643;29;20103;-83
2023/07/06 06:52:51;;;;;;;20.58;10.10;;;15.90;99.90;;;;;;4827351;29;20134;-82
2023/07/06 06:55:17;;;;;;;21.08;9.75;;;16.00;99.90;;;;;;4823690;29;20137;-83
2023/07/06 06:57:43;;;;;;;21.92;10.73;;;16.00;99.90;;;;;;4825842;29;20048;-83
2023/07/06 07:00:10;;;;;;;17.95;9.73;;;16.00;99.90;;;;;;4822299;29;20087;-82
2023/07/06 07:02:39;;;;;;;20.45;11.05;;;16.10;99.90;;;;;;4824834;29;20050;-84
2023/07/06 07:05:07;;;;;;;21.15;11.15;;;16.10;99.90;;;;;;4824572;29;20054;-84
2023/07/06 07:07:50;;;;;;;21.40;10.93;;;16.30;99.90;;;;;;4825791;29;20061;-83
2023/07/06 07:10:16;;;;;;;22.88;10.93;;;16.20;99.90;;;;;;4827209;29;20053;-83
2023/07/06 07:12:47;;;;;;;19.08;10.52;;;16.40;99.90;;;;;;4820896;29;20050;-82
2023/07/06 07:15:14;;;;;;;19.23;10.90;;;16.40;99.90;;;;;;4824287;29;20057;-82
2023/07/06 07:17:51;;;;;;;18.55;10.60;;;16.50;99.90;;;;;;4839801;29;20060;-82
2023/07/06 07:20:18;;;;;;;19.35;10.80;;;16.60;99.90;;;;;;4831603;29;20042;-82
2023/07/06 07:22:47;;;;;;;20.30;10.10;;;16.90;99.90;;;;;;4824444;29;20141;-82
2023/07/06 07:25:13;;;;;;;20.45;10.23;;;17.00;99.90;;;;;;4824944;29;20058;-82
2023/07/06 07:27:39;;;;;;;17.88;10.93;;;17.10;99.90;;;;;;4825146;29;20057;-82
2023/07/06 07:30:06;;;;;;;19.27;10.70;;;17.10;99.90;;;;;;4823896;29;20394;-82
2023/07/06 07:32:32;;;;;;;18.73;10.73;;;17.10;99.90;;;;;;4813615;29;20050;-80
2023/07/06 07:34:58;;;;;;;19.85;10.73;;;17.10;99.90;;;;;;4816516;29;20046;-81
2023/07/06 07:37:25;;;;;;;18.95;10.85;;;17.30;99.90;;;;;;4807920;29;20051;-82
2023/07/06 07:39:51;;;;;;;18.33;10.43;;;17.40;99.90;;;;;;4813574;29;20042;-83
2023/07/06 07:42:18;;;;;;;20.23;9.90;;;17.70;99.90;;;;;;4823181;29;20499;-81
2023/07/06 07:44:44;;;;;;;19.40;10.40;;;17.90;99.90;;;;;;4825577;29;20039;-81
2023/07/06 07:47:18;;;;;;;18.25;9.95;;;17.90;99.90;;;;;;4823540;29;20050;-81
2023/07/06 07:49:45;;;;;;;15.82;9.48;;;18.20;99.90;;;;;;4823673;29;20491;-82
2023/07/06 07:52:12;;;;;;;16.38;8.85;;;18.40;99.90;;;;;;4824554;29;20078;-81
2023/07/06 07:54:39;;;;;;;16.83;9.75;;;18.50;99.90;;;;;;4825380;29;20112;-81
2023/07/06 07:57:06;;;;;;;16.30;8.75;;;18.30;99.90;;;;;;4822634;29;20080;-80
2023/07/06 07:59:33;;;;;;;16.95;9.43;;;18.30;99.90;;;;;;4825077;29;20055;-81
2023/07/06 08:01:59;;;;;;;15.50;9.50;;;18.30;99.90;;;;;;4824365;29;20054;-82
2023/07/06 08:04:25;;;;;;;17.20;9.45;;;18.20;99.90;;;;;;4825052;29;20050;-82
2023/07/06 08:06:51;;;;;;;16.05;9.00;;;18.00;99.90;;;;;;4822857;29;20395;-82
2023/07/06 08:09:17;;;;;;;17.77;9.20;;;17.90;99.90;;;;;;4824127;29;20088;-82
2023/07/06 08:11:45;;;;;;;18.90;9.07;;;18.00;99.90;;;;;;4823829;29;20063;-82
2023/07/06 08:14:11;;;;;;;16.52;8.45;;;18.20;99.90;;;;;;4824677;29;20058;-82
2023/07/06 08:16:40;;;;;;;15.15;8.13;;;18.30;99.90;;;;;;4822848;29;20130;-82
2023/07/06 08:19:07;;;;;;;15.93;8.25;;;18.20;99.90;;;;;;4824243;29;20091;-82
2023/07/06 08:21:34;;;;;;;17.08;9.02;;;18.10;99.90;;;;;;4822589;29;20466;-82
2023/07/06 08:24:00;;;;;;;14.77;8.60;;;18.00;99.90;;;;;;4823830;29;20042;-82
2023/07/06 08:26:31;;;;;;;16.80;8.55;;;18.00;99.90;;;;;;4823647;29;20518;-83
2023/07/06 08:28:57;;;;;;;14.93;9.07;;;17.90;99.90;;;;;;4823920;29;20450;-83
2023/07/06 08:31:24;;;;;;;14.57;8.65;;;17.80;99.90;;;;;;4823789;29;20133;-83
2023/07/06 08:33:50;;;;;;;15.32;8.23;;;17.90;99.90;;;;;;4823103;29;20046;-83
2023/07/06 08:36:20;;;;;;;15.50;8.50;;;18.30;99.90;;;;;;4823495;29;20054;-82
2023/07/06 08:38:49;;;;;;;15.00;8.60;;;18.60;99.90;;;;;;4816474;29;20454;-83
2023/07/06 08:41:30;;;;;;;15.00;8.90;;;18.70;99.90;;;;;;4821863;29;20083;-83
2023/07/06 08:43:59;;;;;;;14.80;8.57;;;18.60;99.90;;;;;;4822521;29;20054;-83
2023/07/06 08:46:59;;;;;;;14.88;8.27;;;18.60;99.90;;;;;;4824131;29;20510;-83
2023/07/06 08:49:30;;;;;;;15.52;8.25;;;18.80;99.90;;;;;;4824446;29;20053;-83
2023/07/06 08:52:02;;;;;;;14.02;7.68;;;19.20;99.90;;;;;;4806886;29;20058;-83
2023/07/06 08:54:27;;;;;;;12.63;7.25;;;19.20;99.90;;;;;;4822854;29;20074;-83
2023/07/06 08:56:54;;;;;;;15.07;7.40;;;19.60;99.90;;;;;;4822282;29;20146;-82
2023/07/06 08:59:54;;;;;;;16.45;7.63;;;19.80;99.90;;;;;;4823345;29;20628;-83
2023/07/06 09:02:23;;;;;;;12.70;7.30;;;20.00;99.90;;;;;;4824023;29;20062;-83
2023/07/06 09:04:51;;;;;;;13.13;6.97;;;20.20;99.90;;;;;;4822632;29;20043;-84
2023/07/06 09:07:19;;;;;;;13.85;6.97;;;20.00;99.90;;;;;;4819029;29;20043;-82
2023/07/06 09:09:58;;;;;;;14.35;6.55;;;20.10;99.90;;;;;;4818292;29;20042;-81
2023/07/06 09:12:31;;;;;;;11.55;5.45;;;20.20;99.90;;;;;;4812226;29;20184;-83
2023/07/06 09:14:59;;;;;;;11.27;5.60;;;20.30;99.90;;;;;;4813578;29;20522;-82
2023/07/06 09:17:27;;;;;;;11.82;5.40;;;20.40;99.90;;;;;;4814072;29;20046;-83
2023/07/06 09:19:56;;;;;;;14.95;6.78;;;20.50;99.90;;;;;;4807506;29;20054;-81
2023/07/06 09:22:23;;;;;;;13.52;6.15;;;20.60;99.90;;;;;;4811695;29;20042;-81
2023/07/06 09:25:01;;;;;;;14.35;6.57;;;20.70;99.90;;;;;;4814549;29;20042;-81
2023/07/06 09:27:32;;;;;;;11.57;5.85;;;20.70;99.90;;;;;;4812820;29;20043;-81
2023/07/06 09:30:06;;;;;;;13.60;5.75;;;20.70;99.90;;;;;;4813948;29;20522;-80
2023/07/06 09:32:44;;;;;;;11.68;5.43;;;20.60;99.90;;;;;;4814859;29;20098;-81
2023/07/06 09:35:21;;;;;;;11.07;5.20;;;20.70;99.90;;;;;;4812775;29;20050;-81
2023/07/06 09:37:48;;;;;;;11.30;4.85;;;21.00;99.90;;;;;;4814822;29;20106;-81
2023/07/06 09:40:14;;;;;;;13.02;4.80;;;21.20;99.90;;;;;;4811543;29;20079;-81
2023/07/06 09:42:52;;;;;;;12.00;5.82;;;21.30;99.90;;;;;;4813746;29;20041;-81
2023/07/06 09:45:35;;;;;;;11.93;5.93;;;20.90;99.90;;;;;;4812493;29;20130;-81
2023/07/06 09:48:12;;;;;;;13.77;5.63;;;20.70;99.90;;;;;;4810624;29;20119;-81
2023/07/06 09:50:43;;;;;;;10.15;5.50;;;20.60;99.90;;;;;;4811115;29;20380;-81
2023/07/06 09:53:27;;;;;;;12.13;5.40;;;20.50;99.90;;;;;;4810870;29;20054;-81
2023/07/06 09:55:54;;;;;;;10.48;5.40;;;20.40;99.90;;;;;;4816749;29;20125;-81
2023/07/06 09:58:30;;;;;;;10.52;5.15;;;20.40;99.90;;;;;;4815871;29;20495;-81
2023/07/06 10:01:43;;;;;;;10.50;4.50;;;20.50;99.90;;;;;;4816309;29;20051;-81
2023/07/06 10:04:29;;;;;;;9.02;4.65;;;20.50;99.90;;;;;;4805314;29;20062;-83
2023/07/06 10:07:13;;;;;;;13.52;5.38;;;20.50;99.90;;;;;;4818379;29;20531;-82
2023/07/06 10:09:52;;;;;;;;;;;20.30;99.90;;;;;;4822987;29;20061;-81
2023/07/06 10:12:38;;;;;;;12.00;5.15;;;20.20;99.90;;;;;;4827402;29;20007;-82
2023/07/06 10:15:26;;;;;;;13.88;6.05;;;20.20;99.90;;;;;;4827955;29;20050;-81
2023/07/06 10:18:21;;;;;;;11.00;5.20;;;20.00;99.90;;;;;;4839259;29;20065;-82
2023/07/06 10:21:11;;;;;;;12.07;5.82;;;19.70;99.90;;;;;;4826721;29;20050;-82
2023/07/06 10:23:57;;;;;;;14.68;5.53;;;19.80;99.90;;;;;;4839664;29;20058;-81
2023/07/06 10:26:26;;;;;;;21.13;6.57;;;20.10;99.90;;;;;;4839681;29;20110;-84
2023/07/06 10:29:00;;;;;;;13.18;5.30;;;20.40;99.90;;;;;;4839973;29;20053;-83
2023/07/06 10:31:51;;;;;;;14.13;5.78;;;20.70;99.90;;;;;;4840752;29;20125;-85
2023/07/06 10:34:39;;;;;;;12.93;4.70;;;21.00;99.90;;;;;;4840481;29;20052;-85
2023/07/06 10:37:07;;;;;;;10.52;3.90;;;21.30;99.90;;;;;;4978216;24;20113;-84
2023/07/06 10:39:32;;;;;;;11.15;4.38;;;21.30;99.90;;;;;;4821787;29;20146;-84
2023/07/06 10:42:00;;;;;;;11.27;4.22;;;21.40;99.90;;;;;;4820655;29;20137;-85
2023/07/06 10:44:52;;;;;;;12.70;4.35;;;21.80;99.90;;;;;;4822006;29;20447;-86
2023/07/06 10:48:06;;;;;;;12.10;3.97;;;22.20;99.90;;;;;;4825146;29;20057;-85
2023/07/06 10:50:46;;;;;;;10.55;4.45;;;22.80;99.90;;;;;;4826239;29;20058;-85
2023/07/06 10:53:32;;;;;;;10.80;4.20;;;23.00;99.90;;;;;;4819100;29;20498;-84
2023/07/06 10:56:01;;;;;;;9.38;4.13;;;23.10;99.90;;;;;;4821146;29;20410;-84
2023/07/06 10:58:29;;;;;;;11.75;3.90;;;23.40;99.90;;;;;;4821048;29;20488;-85
2023/07/06 11:01:04;;;;;;;10.20;3.95;;;22.90;99.90;;;;;;4811048;29;20558;-85
2023/07/06 11:03:31;;;;;;;10.73;3.53;;;22.50;99.90;;;;;;4825016;29;20065;-85
2023/07/06 11:06:08;;;;;;;9.98;3.45;;;21.90;99.90;;;;;;4823929;29;20042;-85
2023/07/06 11:09:03;;;;;;;11.38;4.00;;;21.60;99.90;;;;;;4826122;29;20125;-84
2023/07/06 11:11:32;;;;;;;11.98;4.72;;;21.30;99.90;;;;;;4824468;29;20062;-83
2023/07/06 11:14:34;;;;;;;10.70;4.07;;;21.20;99.90;;;;;;4824878;29;20052;-82
2023/07/06 11:17:19;;;;;;;10.48;3.95;;;21.80;99.90;;;;;;4813246;29;20469;-83
2023/07/06 11:19:54;;;;;;;10.13;4.00;;;21.70;99.90;;;;;;4806317;29;20522;-83
2023/07/06 11:22:24;;;;;;;10.52;4.10;;;21.40;99.90;;;;;;4821853;29;20057;-83
2023/07/06 11:24:54;;;;;;;10.40;3.80;;;21.20;99.90;;;;;;4824733;29;20051;-83
2023/07/06 11:27:32;;;;;;;9.20;3.90;;;21.00;99.90;;;;;;4824124;29;20513;-83
2023/07/06 11:30:15;;;;;;;13.40;3.80;;;20.80;99.90;;;;;;4824930;29;20050;-83
2023/07/06 11:32:52;;;;;;;9.18;3.47;;;20.80;99.90;;;;;;4825852;29;20403;-83
2023/07/06 11:35:27;;;;;;;9.73;3.80;;;21.30;99.90;;;;;;4825933;29;20046;-83
2023/07/06 11:38:30;;;;;;;10.77;4.07;;;21.90;99.90;;;;;;4823922;29;20070;-83
2023/07/06 11:41:16;;;;;;;11.05;4.20;;;22.40;99.90;;;;;;4823375;29;20092;-83
2023/07/06 11:44:10;;;;;;;8.85;3.55;;;22.60;99.90;;;;;;4824197;29;20106;-83
2023/07/06 11:46:55;;;;;;;10.40;4.05;;;22.60;98.70;;;;;;4825680;29;20579;-83
2023/07/06 11:49:40;;;;;;;9.38;3.75;;;22.30;98.70;;;;;;4824216;29;20491;-83
2023/07/06 11:52:13;;;;;;;11.60;4.00;;;22.50;99.90;;;;;;4825096;29;20050;-83
2023/07/06 11:54:49;;;;;;;11.23;3.58;;;22.60;99.90;;;;;;4824772;29;20522;-83
2023/07/06 11:57:25;;;;;;;8.95;3.75;;;22.90;99.90;;;;;;4825363;29;20038;-83
2023/07/06 12:02:47;;;;;;;10.10;3.40;;;22.90;99.00;;;;;;4821898;29;20519;-83
2023/07/06 12:05:46;;;;;;;10.20;3.40;;;23.10;99.90;;;;;;4824059;29;20050;-84
2023/07/06 12:08:36;;;;;;;9.18;3.25;;;23.40;98.10;;;;;;4815829;29;20835;-83
2023/07/06 12:11:15;;;;;;;9.18;3.20;;;23.30;96.60;;;;;;4821732;29;20058;-84
2023/07/06 12:13:43;;;;;;;10.77;3.58;;;23.30;98.40;;;;;;4818948;29;20059;-83
2023/07/06 12:16:09;;;;;;;9.65;3.03;;;23.50;99.70;;;;;;4815199;29;20065;-84
2023/07/06 12:18:36;;;;;;;8.45;3.10;;;23.50;99.60;;;;;;4825346;29;20056;-84
2023/07/06 12:21:05;;;;;;;13.63;3.47;;;23.80;99.40;;;;;;4824727;29;20395;-83
2023/07/06 12:23:31;;;;;;;9.95;3.20;;;24.10;99.10;;;;;;4822986;29;20142;-83
2023/07/06 12:25:58;;;;;;;10.60;3.42;;;24.10;99.30;;;;;;4823294;29;20053;-83
2023/07/06 12:28:30;;;;;;;11.55;3.90;;;24.10;98.20;;;;;;4824964;29;20495;-83
2023/07/06 12:31:00;;;;;;;11.48;3.88;;;24.00;97.60;;;;;;4823830;29;20476;-83
2023/07/06 12:33:28;;;;;;;11.48;3.72;;;23.90;98.20;;;;;;4823427;29;20107;-84
2023/07/06 12:35:54;;;;;;;9.98;3.72;;;23.90;97.90;;;;;;4823214;29;20499;-84
2023/07/06 12:38:20;;;;;;;11.52;4.00;;;24.00;98.20;;;;;;4824014;29;20058;-84
2023/07/06 12:40:49;;;;;;;11.65;4.20;;;24.20;99.10;;;;;;4823632;29;20046;-84
2023/07/06 12:43:27;;;;;;;11.85;3.80;;;24.00;98.50;;;;;;4824129;29;20440;-84
2023/07/06 12:45:54;;;;;;;10.48;3.50;;;24.10;96.40;;;;;;4824827;29;20056;-84
2023/07/06 12:48:25;;;;;;;9.85;3.42;;;24.40;99.50;;;;;;4823262;29;20065;-84
2023/07/06 12:50:54;;;;;;;11.57;4.30;;;24.40;97.00;;;;;;4822905;29;20061;-83
2023/07/06 12:53:29;;;;;;;11.73;4.50;;;24.40;98.70;;;;;;4823265;29;20057;-84
2023/07/06 12:56:06;;;;;;;11.32;4.13;;;24.70;98.80;;;;;;4824322;29;20510;-84
2023/07/06 12:58:34;;;;;;;9.77;3.45;;;24.90;99.10;;;;;;4840567;29;20405;-83
2023/07/06 13:01:20;;;;;;;12.20;3.58;;;24.20;96.80;;;;;;4841035;29;20099;-83